sensor_id;sensor_type;location;lat;lon;timestamp;temperature;humidity
28823;DHT22;15961;54.678;9.110;2023-04-03T00:00:26;-2.10;99.90
28823;DHT22;15961;54.678;9.110;2023-04-03T00:03:12;-2.20;99.90
28823;DHT22;15961;54.678;9.110;2023-04-03T00:05:40;-2.20;99.90
28823;DHT22;15961;54.678;9.110;2023-04-03T00:10:42;-2.30;99.90
28823;DHT22;15961;54.678;9.110;2023-04-03T00:13:08;-2.30;99.90
28823;DHT22;15961;54.678;9.110;2023-04-03T00:15:34;-2.40;99.90
28823;DHT22;15961;54.678;9.110;2023-04-03T00:18:00;-2.30;99.90
28823;DHT22;15961;54.678;9.110;2023-04-03T00:20:26;-2.40;99.90
28823;DHT22;15961;54.678;9.110;2023-04-03T00:23:00;-2.40;99.90
28823;DHT22;15961;54.678;9.110;2023-04-03T00:25:25;-2.40;99.90
28823;DHT22;15961;54.678;9.110;2023-04-03T00:27:51;-2.40;99.90
28823;DHT22;15961;54.678;9.110;2023-04-03T00:30:19;-2.40;99.90
28823;DHT22;15961;54.678;9.110;2023-04-03T00:32:48;-2.50;99.90
28823;DHT22;15961;54.678;9.110;2023-04-03T00:35:13;-2.40;99.90
28823;DHT22;15961;54.678;9.110;2023-04-03T00:37:44;-2.60;99.90
28823;DHT22;15961;54.678;9.110;2023-04-03T00:40:11;-2.60;99.90
28823;DHT22;15961;54.678;9.110;2023-04-03T00:42:37;-2.60;99.90
28823;DHT22;15961;54.678;9.110;2023-04-03T00:47:33;-2.60;99.90
28823;DHT22;15961;54.678;9.110;2023-04-03T00:50:01;-2.60;99.90
28823;DHT22;15961;54.678;9.110;2023-04-03T00:52:30;-2.70;99.90
28823;DHT22;15961;54.678;9.110;2023-04-03T00:55:03;-2.70;99.90
28823;DHT22;15961;54.678;9.110;2023-04-03T00:57:30;-2.70;99.90
28823;DHT22;15961;54.678;9.110;2023-04-03T01:00:00;-2.70;99.90
28823;DHT22;15961;54.678;9.110;2023-04-03T01:02:27;-2.70;99.90
28823;DHT22;15961;54.678;9.110;2023-04-03T01:04:52;-2.70;99.90
28823;DHT22;15961;54.678;9.110;2023-04-03T01:07:26;-2.70;99.90
28823;DHT22;15961;54.678;9.110;2023-04-03T01:09:57;-2.70;99.90
28823;DHT22;15961;54.678;9.110;2023-04-03T01:12:35;-2.80;99.90
28823;DHT22;15961;54.678;9.110;2023-04-03T01:15:07;-2.80;99.90
28823;DHT22;15961;54.678;9.110;2023-04-03T01:17:45;-2.80;99.90
28823;DHT22;15961;54.678;9.110;2023-04-03T01:25:52;-2.80;99.90
28823;DHT22;15961;54.678;9.110;2023-04-03T01:28:25;-2.90;99.90
28823;DHT22;15961;54.678;9.110;2023-04-03T01:31:12;-2.90;99.90
28823;DHT22;15961;54.678;9.110;2023-04-03T01:33:41;-2.90;99.90
28823;DHT22;15961;54.678;9.110;2023-04-03T01:36:07;-3.00;99.90
28823;DHT22;15961;54.678;9.110;2023-04-03T01:38:33;-2.90;99.90
28823;DHT22;15961;54.678;9.110;2023-04-03T01:40:59;-3.00;99.90
28823;DHT22;15961;54.678;9.110;2023-04-03T01:43:24;-3.00;99.90
28823;DHT22;15961;54.678;9.110;2023-04-03T01:45:50;-3.00;99.90
28823;DHT22;15961;54.678;9.110;2023-04-03T01:48:17;-3.00;99.90
28823;DHT22;15961;54.678;9.110;2023-04-03T01:50:43;-3.00;99.90
28823;DHT22;15961;54.678;9.110;2023-04-03T01:53:08;-3.00;99.90
28823;DHT22;15961;54.678;9.110;2023-04-03T01:55:37;-3.00;99.90
28823;DHT22;15961;54.678;9.110;2023-04-03T01:58:10;-2.90;99.90
28823;DHT22;15961;54.678;9.110;2023-04-03T02:00:35;-3.00;99.90
28823;DHT22;15961;54.678;9.110;2023-04-03T02:03:01;-2.90;99.90
28823;DHT22;15961;54.678;9.110;2023-04-03T02:05:27;-2.80;99.90
28823;DHT22;15961;54.678;9.110;2023-04-03T02:08:01;-2.80;99.90
28823;DHT22;15961;54.678;9.110;2023-04-03T02:10:50;-2.90;99.90
28823;DHT22;15961;54.678;9.110;2023-04-03T02:13:16;-2.80;99.90
28823;DHT22;15961;54.678;9.110;2023-04-03T02:15:54;-3.00;99.90
28823;DHT22;15961;54.678;9.110;2023-04-03T02:18:51;-3.00;99.90
28823;DHT22;15961;54.678;9.110;2023-04-03T02:21:16;-3.00;99.90
28823;DHT22;15961;54.678;9.110;2023-04-03T02:23:44;-3.00;99.90
28823;DHT22;15961;54.678;9.110;2023-04-03T02:26:13;-3.00;99.90
28823;DHT22;15961;54.678;9.110;2023-04-03T02:28:42;-3.10;99.90
28823;DHT22;15961;54.678;9.110;2023-04-03T02:31:09;-3.20;99.90
28823;DHT22;15961;54.678;9.110;2023-04-03T02:33:36;-3.20;99.90
28823;DHT22;15961;54.678;9.110;2023-04-03T02:36:06;-3.20;99.90
28823;DHT22;15961;54.678;9.110;2023-04-03T02:38:32;-3.20;99.90
28823;DHT22;15961;54.678;9.110;2023-04-03T02:41:04;-3.20;99.90
28823;DHT22;15961;54.678;9.110;2023-04-03T02:43:30;-3.20;99.90
28823;DHT22;15961;54.678;9.110;2023-04-03T02:45:56;-3.30;99.90
28823;DHT22;15961;54.678;9.110;2023-04-03T02:48:31;-3.30;99.90
28823;DHT22;15961;54.678;9.110;2023-04-03T02:50:56;-3.30;99.90
28823;DHT22;15961;54.678;9.110;2023-04-03T02:53:22;-3.30;99.90
28823;DHT22;15961;54.678;9.110;2023-04-03T02:55:48;-3.40;99.90
28823;DHT22;15961;54.678;9.110;2023-04-03T02:58:14;-3.40;99.90
28823;DHT22;15961;54.678;9.110;2023-04-03T03:00:40;-3.40;99.90
28823;DHT22;15961;54.678;9.110;2023-04-03T03:03:08;-3.40;99.90
28823;DHT22;15961;54.678;9.110;2023-04-03T03:05:39;-3.40;99.90
28823;DHT22;15961;54.678;9.110;2023-04-03T03:08:16;-3.40;99.90
28823;DHT22;15961;54.678;9.110;2023-04-03T03:10:49;-3.40;99.90
28823;DHT22;15961;54.678;9.110;2023-04-03T03:13:16;-3.50;99.90
28823;DHT22;15961;54.678;9.110;2023-04-03T03:15:42;-3.50;99.90
28823;DHT22;15961;54.678;9.110;2023-04-03T03:18:10;-3.50;99.90
28823;DHT22;15961;54.678;9.110;2023-04-03T03:20:36;-3.60;99.90
28823;DHT22;15961;54.678;9.110;2023-04-03T03:23:06;-3.60;99.90
28823;DHT22;15961;54.678;9.110;2023-04-03T03:25:32;-3.70;99.90
28823;DHT22;15961;54.678;9.110;2023-04-03T03:27:57;-3.50;99.90
28823;DHT22;15961;54.678;9.110;2023-04-03T03:30:23;-3.40;99.90
28823;DHT22;15961;54.678;9.110;2023-04-03T03:32:48;-3.40;99.90
28823;DHT22;15961;54.678;9.110;2023-04-03T03:35:14;-3.40;99.90
28823;DHT22;15961;54.678;9.110;2023-04-03T03:37:40;-3.40;99.90
28823;DHT22;15961;54.678;9.110;2023-04-03T03:40:06;-3.50;99.90
28823;DHT22;15961;54.678;9.110;2023-04-03T03:42:31;-3.50;99.90
28823;DHT22;15961;54.678;9.110;2023-04-03T03:45:03;-3.50;99.90
28823;DHT22;15961;54.678;9.110;2023-04-03T03:47:28;-3.30;99.90
28823;DHT22;15961;54.678;9.110;2023-04-03T03:49:54;-3.50;99.90
28823;DHT22;15961;54.678;9.110;2023-04-03T03:52:19;-3.60;99.90
28823;DHT22;15961;54.678;9.110;2023-04-03T03:54:45;-3.60;99.90
28823;DHT22;15961;54.678;9.110;2023-04-03T03:57:10;-3.60;99.90
28823;DHT22;15961;54.678;9.110;2023-04-03T03:59:36;-3.70;99.90
28823;DHT22;15961;54.678;9.110;2023-04-03T04:02:01;-3.70;99.90
28823;DHT22;15961;54.678;9.110;2023-04-03T04:04:27;-3.60;99.90
28823;DHT22;15961;54.678;9.110;2023-04-03T04:06:53;-3.60;99.90
28823;DHT22;15961;54.678;9.110;2023-04-03T04:09:18;-3.70;99.90
28823;DHT22;15961;54.678;9.110;2023-04-03T04:11:44;-3.70;99.90
28823;DHT22;15961;54.678;9.110;2023-04-03T04:14:10;-3.70;99.90
28823;DHT22;15961;54.678;9.110;2023-04-03T04:16:37;-3.70;99.90
28823;DHT22;15961;54.678;9.110;2023-04-03T04:19:03;-3.70;99.90
28823;DHT22;15961;54.678;9.110;2023-04-03T04:21:29;-3.80;99.90
28823;DHT22;15961;54.678;9.110;2023-04-03T04:23:54;-3.80;99.90
28823;DHT22;15961;54.678;9.110;2023-04-03T04:26:20;-3.80;99.90
28823;DHT22;15961;54.678;9.110;2023-04-03T04:28:51;-3.70;99.90
28823;DHT22;15961;54.678;9.110;2023-04-03T04:31:16;-3.80;99.90
28823;DHT22;15961;54.678;9.110;2023-04-03T04:33:42;-3.80;99.90
28823;DHT22;15961;54.678;9.110;2023-04-03T04:36:07;-3.80;99.90
28823;DHT22;15961;54.678;9.110;2023-04-03T04:38:36;-3.90;99.90
28823;DHT22;15961;54.678;9.110;2023-04-03T04:41:06;-3.90;99.90
28823;DHT22;15961;54.678;9.110;2023-04-03T04:43:32;-4.00;99.90
28823;DHT22;15961;54.678;9.110;2023-04-03T04:46:03;-4.00;99.90
28823;DHT22;15961;54.678;9.110;2023-04-03T04:48:29;-4.00;99.90
28823;DHT22;15961;54.678;9.110;2023-04-03T04:50:55;-4.10;99.90
28823;DHT22;15961;54.678;9.110;2023-04-03T04:53:21;-4.00;99.90
28823;DHT22;15961;54.678;9.110;2023-04-03T04:55:46;-4.00;99.90
28823;DHT22;15961;54.678;9.110;2023-04-03T04:58:12;-4.00;99.90
28823;DHT22;15961;54.678;9.110;2023-04-03T05:00:37;-4.00;99.90
28823;DHT22;15961;54.678;9.110;2023-04-03T05:03:06;-4.00;99.90
28823;DHT22;15961;54.678;9.110;2023-04-03T05:05:31;-3.90;99.90
28823;DHT22;15961;54.678;9.110;2023-04-03T05:07:57;-4.00;99.90
28823;DHT22;15961;54.678;9.110;2023-04-03T05:10:22;-4.00;99.90
28823;DHT22;15961;54.678;9.110;2023-04-03T05:12:48;-4.00;99.90
28823;DHT22;15961;54.678;9.110;2023-04-03T05:15:13;-3.90;99.90
28823;DHT22;15961;54.678;9.110;2023-04-03T05:17:39;-3.80;99.90
28823;DHT22;15961;54.678;9.110;2023-04-03T05:20:05;-3.80;99.90
28823;DHT22;15961;54.678;9.110;2023-04-03T05:22:31;-3.80;99.90
28823;DHT22;15961;54.678;9.110;2023-04-03T05:24:57;-3.70;99.90
28823;DHT22;15961;54.678;9.110;2023-04-03T05:27:22;-3.70;99.90
28823;DHT22;15961;54.678;9.110;2023-04-03T05:29:54;-3.60;99.90
28823;DHT22;15961;54.678;9.110;2023-04-03T05:32:19;-3.60;99.90
28823;DHT22;15961;54.678;9.110;2023-04-03T05:34:45;-3.60;99.90
28823;DHT22;15961;54.678;9.110;2023-04-03T05:37:20;-3.50;99.90
28823;DHT22;15961;54.678;9.110;2023-04-03T05:39:55;-3.50;99.90
28823;DHT22;15961;54.678;9.110;2023-04-03T05:42:27;-3.40;99.90
28823;DHT22;15961;54.678;9.110;2023-04-03T05:44:53;-3.30;99.90
28823;DHT22;15961;54.678;9.110;2023-04-03T05:47:19;-3.20;99.90
28823;DHT22;15961;54.678;9.110;2023-04-03T05:49:45;-3.20;99.90
28823;DHT22;15961;54.678;9.110;2023-04-03T05:52:30;-3.00;99.90
28823;DHT22;15961;54.678;9.110;2023-04-03T05:54:57;-2.90;99.90
28823;DHT22;15961;54.678;9.110;2023-04-03T05:57:23;-2.80;99.90
28823;DHT22;15961;54.678;9.110;2023-04-03T05:59:51;-2.60;99.90
28823;DHT22;15961;54.678;9.110;2023-04-03T06:02:20;-2.30;99.90
28823;DHT22;15961;54.678;9.110;2023-04-03T06:04:46;-2.10;99.90
28823;DHT22;15961;54.678;9.110;2023-04-03T06:07:21;-2.00;99.90
28823;DHT22;15961;54.678;9.110;2023-04-03T06:09:48;-1.80;99.90
28823;DHT22;15961;54.678;9.110;2023-04-03T06:12:14;-1.60;99.90
28823;DHT22;15961;54.678;9.110;2023-04-03T06:14:48;-1.30;99.90
28823;DHT22;15961;54.678;9.110;2023-04-03T06:17:32;-1.40;99.90
28823;DHT22;15961;54.678;9.110;2023-04-03T06:20:04;-1.20;99.90
28823;DHT22;15961;54.678;9.110;2023-04-03T06:22:36;-1.10;99.90
28823;DHT22;15961;54.678;9.110;2023-04-03T06:25:09;-0.90;99.90
28823;DHT22;15961;54.678;9.110;2023-04-03T06:27:37;-0.60;99.90
28823;DHT22;15961;54.678;9.110;2023-04-03T06:30:04;-0.60;99.90
28823;DHT22;15961;54.678;9.110;2023-04-03T06:32:30;-0.50;99.90
28823;DHT22;15961;54.678;9.110;2023-04-03T06:34:58;-0.30;99.90
28823;DHT22;15961;54.678;9.110;2023-04-03T06:37:24;-0.20;99.90
28823;DHT22;15961;54.678;9.110;2023-04-03T06:39:54;-0.10;99.90
28823;DHT22;15961;54.678;9.110;2023-04-03T06:42:20;0.00;99.90
28823;DHT22;15961;54.678;9.110;2023-04-03T06:44:46;0.10;99.90
28823;DHT22;15961;54.678;9.110;2023-04-03T06:47:13;0.30;99.90
28823;DHT22;15961;54.678;9.110;2023-04-03T06:50:04;0.40;99.90
28823;DHT22;15961;54.678;9.110;2023-04-03T06:52:34;0.50;99.90
28823;DHT22;15961;54.678;9.110;2023-04-03T06:55:00;0.50;99.90
28823;DHT22;15961;54.678;9.110;2023-04-03T06:57:26;0.70;99.90
28823;DHT22;15961;54.678;9.110;2023-04-03T06:59:51;0.90;99.90
28823;DHT22;15961;54.678;9.110;2023-04-03T07:02:17;1.00;99.90
28823;DHT22;15961;54.678;9.110;2023-04-03T07:04:42;1.10;99.90
28823;DHT22;15961;54.678;9.110;2023-04-03T07:07:11;1.40;99.90
28823;DHT22;15961;54.678;9.110;2023-04-03T07:10:05;1.50;99.90
28823;DHT22;15961;54.678;9.110;2023-04-03T07:12:31;1.90;99.90
28823;DHT22;15961;54.678;9.110;2023-04-03T07:15:18;2.10;99.90
28823;DHT22;15961;54.678;9.110;2023-04-03T07:18:04;2.20;99.90
28823;DHT22;15961;54.678;9.110;2023-04-03T07:20:34;2.30;99.90
28823;DHT22;15961;54.678;9.110;2023-04-03T07:23:19;2.60;99.90
28823;DHT22;15961;54.678;9.110;2023-04-03T07:25:46;2.80;99.90
28823;DHT22;15961;54.678;9.110;2023-04-03T07:28:25;2.90;99.90
28823;DHT22;15961;54.678;9.110;2023-04-03T07:30:59;3.20;99.90
28823;DHT22;15961;54.678;9.110;2023-04-03T07:33:25;3.30;99.90
28823;DHT22;15961;54.678;9.110;2023-04-03T07:35:53;3.60;99.90
28823;DHT22;15961;54.678;9.110;2023-04-03T07:38:19;3.70;99.90
28823;DHT22;15961;54.678;9.110;2023-04-03T07:40:50;3.90;99.90
28823;DHT22;15961;54.678;9.110;2023-04-03T07:43:20;4.10;99.90
28823;DHT22;15961;54.678;9.110;2023-04-03T07:45:47;4.30;99.90
28823;DHT22;15961;54.678;9.110;2023-04-03T07:48:16;4.30;99.90
28823;DHT22;15961;54.678;9.110;2023-04-03T07:50:43;4.40;99.90
28823;DHT22;15961;54.678;9.110;2023-04-03T07:53:09;4.60;99.90
28823;DHT22;15961;54.678;9.110;2023-04-03T07:55:34;4.70;99.90
28823;DHT22;15961;54.678;9.110;2023-04-03T07:58:02;5.00;99.90
28823;DHT22;15961;54.678;9.110;2023-04-03T08:00:31;5.00;99.90
28823;DHT22;15961;54.678;9.110;2023-04-03T08:02:57;5.20;99.90
28823;DHT22;15961;54.678;9.110;2023-04-03T08:05:22;5.30;99.90
28823;DHT22;15961;54.678;9.110;2023-04-03T08:07:48;5.50;99.90
28823;DHT22;15961;54.678;9.110;2023-04-03T08:10:23;5.60;99.90
28823;DHT22;15961;54.678;9.110;2023-04-03T08:12:48;5.60;99.90
28823;DHT22;15961;54.678;9.110;2023-04-03T08:15:14;5.80;99.90
28823;DHT22;15961;54.678;9.110;2023-04-03T08:17:40;6.00;99.90
28823;DHT22;15961;54.678;9.110;2023-04-03T08:20:06;6.10;99.90
28823;DHT22;15961;54.678;9.110;2023-04-03T08:22:32;6.40;99.90
28823;DHT22;15961;54.678;9.110;2023-04-03T08:25:01;6.60;99.90
28823;DHT22;15961;54.678;9.110;2023-04-03T08:27:27;6.80;99.90
28823;DHT22;15961;54.678;9.110;2023-04-03T08:29:52;7.10;99.90
28823;DHT22;15961;54.678;9.110;2023-04-03T08:32:21;7.20;99.90
28823;DHT22;15961;54.678;9.110;2023-04-03T08:34:55;7.60;99.90
28823;DHT22;15961;54.678;9.110;2023-04-03T08:37:21;7.90;99.90
28823;DHT22;15961;54.678;9.110;2023-04-03T08:39:47;7.70;99.90
28823;DHT22;15961;54.678;9.110;2023-04-03T08:44:55;7.70;99.90
28823;DHT22;15961;54.678;9.110;2023-04-03T08:47:40;7.90;99.90
28823;DHT22;15961;54.678;9.110;2023-04-03T08:50:19;7.90;99.90
28823;DHT22;15961;54.678;9.110;2023-04-03T08:52:52;8.00;99.90
28823;DHT22;15961;54.678;9.110;2023-04-03T08:55:33;8.00;99.90
28823;DHT22;15961;54.678;9.110;2023-04-03T09:00:26;8.10;99.90
28823;DHT22;15961;54.678;9.110;2023-04-03T09:02:54;8.10;99.90
28823;DHT22;15961;54.678;9.110;2023-04-03T09:10:41;9.00;99.90
28823;DHT22;15961;54.678;9.110;2023-04-03T09:13:28;9.20;99.90
28823;DHT22;15961;54.678;9.110;2023-04-03T09:15:59;9.30;99.90
28823;DHT22;15961;54.678;9.110;2023-04-03T09:18:32;9.20;99.90
28823;DHT22;15961;54.678;9.110;2023-04-03T09:21:23;9.10;99.90
28823;DHT22;15961;54.678;9.110;2023-04-03T09:23:58;9.30;99.90
28823;DHT22;15961;54.678;9.110;2023-04-03T09:26:35;9.50;99.90
28823;DHT22;15961;54.678;9.110;2023-04-03T09:29:25;9.70;99.90
28823;DHT22;15961;54.678;9.110;2023-04-03T09:31:56;9.90;99.90
28823;DHT22;15961;54.678;9.110;2023-04-03T09:34:30;10.10;99.90
28823;DHT22;15961;54.678;9.110;2023-04-03T09:37:05;9.70;99.90
28823;DHT22;15961;54.678;9.110;2023-04-03T09:39:53;9.90;99.90
28823;DHT22;15961;54.678;9.110;2023-04-03T09:42:23;9.90;99.90
28823;DHT22;15961;54.678;9.110;2023-04-03T09:44:55;10.10;99.90
28823;DHT22;15961;54.678;9.110;2023-04-03T09:47:36;10.30;99.90
28823;DHT22;15961;54.678;9.110;2023-04-03T09:50:19;10.40;99.90
28823;DHT22;15961;54.678;9.110;2023-04-03T09:52:50;10.20;99.90
28823;DHT22;15961;54.678;9.110;2023-04-03T09:55:28;10.40;99.90
28823;DHT22;15961;54.678;9.110;2023-04-03T10:00:56;10.70;99.90
28823;DHT22;15961;54.678;9.110;2023-04-03T10:03:35;10.70;99.90
28823;DHT22;15961;54.678;9.110;2023-04-03T10:06:02;11.00;99.90
28823;DHT22;15961;54.678;9.110;2023-04-03T10:08:33;11.40;99.90
28823;DHT22;15961;54.678;9.110;2023-04-03T10:11:25;11.80;99.90
28823;DHT22;15961;54.678;9.110;2023-04-03T10:14:00;12.10;99.90
28823;DHT22;15961;54.678;9.110;2023-04-03T10:16:32;12.40;99.90
28823;DHT22;15961;54.678;9.110;2023-04-03T10:19:20;12.10;99.90
28823;DHT22;15961;54.678;9.110;2023-04-03T10:28:06;13.50;99.90
28823;DHT22;15961;54.678;9.110;2023-04-03T10:46:19;13.10;99.90
28823;DHT22;15961;54.678;9.110;2023-04-03T10:57:40;10.90;99.90
28823;DHT22;15961;54.678;9.110;2023-04-03T11:00:16;10.60;99.90
28823;DHT22;15961;54.678;9.110;2023-04-03T11:02:56;10.50;99.90
28823;DHT22;15961;54.678;9.110;2023-04-03T11:05:45;10.30;99.90
28823;DHT22;15961;54.678;9.110;2023-04-03T11:11:31;9.70;99.90
28823;DHT22;15961;54.678;9.110;2023-04-03T11:14:14;9.60;99.90
28823;DHT22;15961;54.678;9.110;2023-04-03T11:19:35;10.70;99.90
28823;DHT22;15961;54.678;9.110;2023-04-03T11:22:32;11.00;99.90
28823;DHT22;15961;54.678;9.110;2023-04-03T11:27:44;11.70;99.90
28823;DHT22;15961;54.678;9.110;2023-04-03T11:36:18;13.70;99.90
28823;DHT22;15961;54.678;9.110;2023-04-03T11:38:46;14.20;99.90
28823;DHT22;15961;54.678;9.110;2023-04-03T11:41:32;13.70;99.90
28823;DHT22;15961;54.678;9.110;2023-04-03T11:44:12;13.20;99.90
28823;DHT22;15961;54.678;9.110;2023-04-03T11:46:57;13.00;99.90
28823;DHT22;15961;54.678;9.110;2023-04-03T12:11:24;16.20;99.90
28823;DHT22;15961;54.678;9.110;2023-04-03T12:16:42;14.00;99.90
28823;DHT22;15961;54.678;9.110;2023-04-03T12:24:33;12.20;99.90
28823;DHT22;15961;54.678;9.110;2023-04-03T12:43:43;11.50;99.90
28823;DHT22;15961;54.678;9.110;2023-04-03T12:46:17;12.00;99.90
28823;DHT22;15961;54.678;9.110;2023-04-03T12:48:55;11.70;99.90
28823;DHT22;15961;54.678;9.110;2023-04-03T12:51:36;11.40;99.90
28823;DHT22;15961;54.678;9.110;2023-04-03T12:54:12;10.90;99.90
28823;DHT22;15961;54.678;9.110;2023-04-03T12:56:38;11.20;99.90
28823;DHT22;15961;54.678;9.110;2023-04-03T12:59:20;11.60;99.90
28823;DHT22;15961;54.678;9.110;2023-04-03T13:01:56;11.20;99.90
28823;DHT22;15961;54.678;9.110;2023-04-03T13:04:30;11.40;99.90
28823;DHT22;15961;54.678;9.110;2023-04-03T13:07:05;11.30;99.90
28823;DHT22;15961;54.678;9.110;2023-04-03T13:09:42;11.00;99.90
28823;DHT22;15961;54.678;9.110;2023-04-03T13:12:20;10.60;99.90
28823;DHT22;15961;54.678;9.110;2023-04-03T13:14:58;11.00;99.90
28823;DHT22;15961;54.678;9.110;2023-04-03T13:17:39;12.00;99.90
28823;DHT22;15961;54.678;9.110;2023-04-03T13:20:25;13.80;99.90
28823;DHT22;15961;54.678;9.110;2023-04-03T13:23:04;15.20;99.90
28823;DHT22;15961;54.678;9.110;2023-04-03T13:25:33;15.70;99.90
28823;DHT22;15961;54.678;9.110;2023-04-03T13:28:05;15.20;99.90
28823;DHT22;15961;54.678;9.110;2023-04-03T13:30:56;14.00;99.90
28823;DHT22;15961;54.678;9.110;2023-04-03T13:33:26;14.30;99.90
28823;DHT22;15961;54.678;9.110;2023-04-03T13:36:00;13.70;99.90
28823;DHT22;15961;54.678;9.110;2023-04-03T13:38:33;12.80;99.90
28823;DHT22;15961;54.678;9.110;2023-04-03T13:41:24;12.80;99.90
28823;DHT22;15961;54.678;9.110;2023-04-03T13:43:50;14.10;99.90
28823;DHT22;15961;54.678;9.110;2023-04-03T13:46:27;14.40;99.90
28823;DHT22;15961;54.678;9.110;2023-04-03T13:49:16;15.40;99.90
28823;DHT22;15961;54.678;9.110;2023-04-03T13:51:42;16.20;99.90
28823;DHT22;15961;54.678;9.110;2023-04-03T13:54:23;16.80;99.90
28823;DHT22;15961;54.678;9.110;2023-04-03T13:56:59;17.20;99.90
28823;DHT22;15961;54.678;9.110;2023-04-03T13:59:34;17.70;99.90
28823;DHT22;15961;54.678;9.110;2023-04-03T14:02:28;18.30;99.90
28823;DHT22;15961;54.678;9.110;2023-04-03T14:04:57;18.00;97.40
28823;DHT22;15961;54.678;9.110;2023-04-03T14:07:29;17.60;97.60
28823;DHT22;15961;54.678;9.110;2023-04-03T14:10:05;17.10;95.20
28823;DHT22;15961;54.678;9.110;2023-04-03T14:12:44;17.10;96.80
28823;DHT22;15961;54.678;9.110;2023-04-03T14:15:36;17.20;96.20
28823;DHT22;15961;54.678;9.110;2023-04-03T14:18:01;17.60;95.00
28823;DHT22;15961;54.678;9.110;2023-04-03T14:20:36;17.90;93.80
28823;DHT22;15961;54.678;9.110;2023-04-03T14:23:04;18.00;90.70
28823;DHT22;15961;54.678;9.110;2023-04-03T14:25:59;16.90;93.00
28823;DHT22;15961;54.678;9.110;2023-04-03T14:28:25;17.20;94.20
28823;DHT22;15961;54.678;9.110;2023-04-03T14:31:05;17.40;94.10
28823;DHT22;15961;54.678;9.110;2023-04-03T14:33:37;17.60;92.40
28823;DHT22;15961;54.678;9.110;2023-04-03T14:36:20;17.60;92.90
28823;DHT22;15961;54.678;9.110;2023-04-03T14:38:47;17.70;92.80
28823;DHT22;15961;54.678;9.110;2023-04-03T14:41:19;18.10;91.80
28823;DHT22;15961;54.678;9.110;2023-04-03T14:43:46;17.60;91.10
28823;DHT22;15961;54.678;9.110;2023-04-03T14:46:18;17.60;92.40
28823;DHT22;15961;54.678;9.110;2023-04-03T14:48:45;17.50;92.30
28823;DHT22;15961;54.678;9.110;2023-04-03T14:51:12;17.60;92.40
28823;DHT22;15961;54.678;9.110;2023-04-03T14:53:38;18.20;91.60
28823;DHT22;15961;54.678;9.110;2023-04-03T14:56:27;18.20;92.10
28823;DHT22;15961;54.678;9.110;2023-04-03T14:59:04;17.80;90.50
28823;DHT22;15961;54.678;9.110;2023-04-03T15:01:37;17.70;91.10
28823;DHT22;15961;54.678;9.110;2023-04-03T15:04:15;17.80;90.60
28823;DHT22;15961;54.678;9.110;2023-04-03T15:06:45;17.90;90.40
28823;DHT22;15961;54.678;9.110;2023-04-03T15:09:22;18.10;90.40
28823;DHT22;15961;54.678;9.110;2023-04-03T15:11:52;18.20;90.50
28823;DHT22;15961;54.678;9.110;2023-04-03T15:14:18;17.90;90.00
28823;DHT22;15961;54.678;9.110;2023-04-03T15:16:44;17.80;87.80
28823;DHT22;15961;54.678;9.110;2023-04-03T15:19:12;17.70;90.00
28823;DHT22;15961;54.678;9.110;2023-04-03T15:21:39;17.20;89.80
28823;DHT22;15961;54.678;9.110;2023-04-03T15:24:08;17.20;90.60
28823;DHT22;15961;54.678;9.110;2023-04-03T15:26:34;17.20;90.10
28823;DHT22;15961;54.678;9.110;2023-04-03T15:29:00;17.10;87.20
28823;DHT22;15961;54.678;9.110;2023-04-03T15:31:26;16.70;89.70
28823;DHT22;15961;54.678;9.110;2023-04-03T15:33:52;17.00;90.50
28823;DHT22;15961;54.678;9.110;2023-04-03T15:36:17;16.80;89.80
28823;DHT22;15961;54.678;9.110;2023-04-03T15:38:43;16.70;90.50
28823;DHT22;15961;54.678;9.110;2023-04-03T15:41:09;16.80;90.50
28823;DHT22;15961;54.678;9.110;2023-04-03T15:43:37;16.70;90.20
28823;DHT22;15961;54.678;9.110;2023-04-03T15:46:08;16.80;90.00
28823;DHT22;15961;54.678;9.110;2023-04-03T15:48:39;16.70;88.90
28823;DHT22;15961;54.678;9.110;2023-04-03T15:51:07;17.00;89.30
28823;DHT22;15961;54.678;9.110;2023-04-03T15:53:32;17.10;90.00
28823;DHT22;15961;54.678;9.110;2023-04-03T15:55:58;17.00;90.50
28823;DHT22;15961;54.678;9.110;2023-04-03T15:58:23;17.00;90.20
28823;DHT22;15961;54.678;9.110;2023-04-03T16:00:51;16.60;90.90
28823;DHT22;15961;54.678;9.110;2023-04-03T16:03:20;16.40;90.30
28823;DHT22;15961;54.678;9.110;2023-04-03T16:05:47;16.60;90.60
28823;DHT22;15961;54.678;9.110;2023-04-03T16:08:13;16.30;90.60
28823;DHT22;15961;54.678;9.110;2023-04-03T16:10:39;16.00;90.40
28823;DHT22;15961;54.678;9.110;2023-04-03T16:13:06;16.00;90.10
28823;DHT22;15961;54.678;9.110;2023-04-03T16:15:32;15.70;90.60
28823;DHT22;15961;54.678;9.110;2023-04-03T16:17:59;15.70;90.70
28823;DHT22;15961;54.678;9.110;2023-04-03T16:20:26;15.40;90.20
28823;DHT22;15961;54.678;9.110;2023-04-03T16:22:52;15.50;90.50
28823;DHT22;15961;54.678;9.110;2023-04-03T16:25:18;15.30;91.20
28823;DHT22;15961;54.678;9.110;2023-04-03T16:27:43;15.50;91.30
28823;DHT22;15961;54.678;9.110;2023-04-03T16:30:11;15.40;90.90
28823;DHT22;15961;54.678;9.110;2023-04-03T16:32:38;15.20;91.70
28823;DHT22;15961;54.678;9.110;2023-04-03T16:35:10;14.90;91.30
28823;DHT22;15961;54.678;9.110;2023-04-03T16:37:41;14.40;92.60
28823;DHT22;15961;54.678;9.110;2023-04-03T16:40:08;14.10;92.80
28823;DHT22;15961;54.678;9.110;2023-04-03T16:42:33;13.60;93.60
28823;DHT22;15961;54.678;9.110;2023-04-03T16:44:59;13.30;94.10
28823;DHT22;15961;54.678;9.110;2023-04-03T16:47:28;13.30;94.10
28823;DHT22;15961;54.678;9.110;2023-04-03T16:49:53;13.70;94.40
28823;DHT22;15961;54.678;9.110;2023-04-03T16:52:19;13.40;93.90
28823;DHT22;15961;54.678;9.110;2023-04-03T16:54:44;13.00;94.10
28823;DHT22;15961;54.678;9.110;2023-04-03T16:57:13;12.60;94.70
28823;DHT22;15961;54.678;9.110;2023-04-03T16:59:49;12.50;96.60
28823;DHT22;15961;54.678;9.110;2023-04-03T17:02:15;12.30;95.80
28823;DHT22;15961;54.678;9.110;2023-04-03T17:04:40;12.30;96.10
28823;DHT22;15961;54.678;9.110;2023-04-03T17:07:06;12.10;96.70
28823;DHT22;15961;54.678;9.110;2023-04-03T17:09:33;11.80;96.40
28823;DHT22;15961;54.678;9.110;2023-04-03T17:11:59;11.00;96.80
28823;DHT22;15961;54.678;9.110;2023-04-03T17:14:46;10.30;98.80
28823;DHT22;15961;54.678;9.110;2023-04-03T17:17:22;9.30;99.90
28823;DHT22;15961;54.678;9.110;2023-04-03T17:19:51;8.80;99.90
28823;DHT22;15961;54.678;9.110;2023-04-03T17:22:39;8.30;99.90
28823;DHT22;15961;54.678;9.110;2023-04-03T17:25:05;7.90;99.90
28823;DHT22;15961;54.678;9.110;2023-04-03T17:27:43;7.50;99.90
28823;DHT22;15961;54.678;9.110;2023-04-03T17:30:28;7.20;99.90
28823;DHT22;15961;54.678;9.110;2023-04-03T17:33:14;7.00;99.90
28823;DHT22;15961;54.678;9.110;2023-04-03T17:35:42;6.70;99.90
28823;DHT22;15961;54.678;9.110;2023-04-03T17:41:01;6.40;99.90
28823;DHT22;15961;54.678;9.110;2023-04-03T17:43:29;6.10;99.90
28823;DHT22;15961;54.678;9.110;2023-04-03T17:46:23;5.90;99.90
28823;DHT22;15961;54.678;9.110;2023-04-03T17:48:49;5.60;99.90
28823;DHT22;15961;54.678;9.110;2023-04-03T17:51:17;5.40;99.90
28823;DHT22;15961;54.678;9.110;2023-04-03T17:53:46;5.10;99.90
28823;DHT22;15961;54.678;9.110;2023-04-03T17:56:24;5.00;99.90